Time;durP1;ratioP1;P1;durP2;ratioP2;P2;SDS_P1;SDS_P2;PMS_P1;PMS_P2;Temp;Humidity;BMP_temperature;BMP_pressure;BME280_temperature;BME280_humidity;BME280_pressure;Samples;Min_cycle;Max_cycle;Signal;HPM_P1;HPM_P2
2023/01/22 00:02:14;;;;;;;0.00;0.00;;;;;;;-1.31;100.00;99477.53;4926282;28;20622;-57
2023/01/22 00:04:40;;;;;;;0.00;0.00;;;;;;;-1.38;100.00;99472.63;4923749;28;20290;-58
2023/01/22 00:07:08;;;;;;;0.00;0.00;;;;;;;-1.32;99.96;99475.88;4927770;28;20249;-58
2023/01/22 00:09:34;;;;;;;0.00;0.00;;;;;;;-1.31;99.94;99477.53;4922455;28;20237;-58
2023/01/22 00:12:01;;;;;;;0.00;0.00;;;;;;;-1.33;99.65;99472.44;4923180;28;20247;-57
2023/01/22 00:14:28;;;;;;;0.00;0.00;;;;;;;-1.31;98.94;99478.34;4929212;28;20238;-55
2023/01/22 00:16:54;;;;;;;0.00;0.00;;;;;;;-1.35;100.00;99469.97;4932835;28;20235;-59
2023/01/22 00:19:21;;;;;;;0.00;0.00;;;;;;;-1.37;100.00;99473.44;4937071;28;20230;-57
2023/01/22 00:21:47;;;;;;;0.00;0.00;;;;;;;-1.29;100.00;99471.47;4933374;28;20762;-58
2023/01/22 00:24:15;;;;;;;0.00;0.00;;;;;;;-1.37;100.00;99463.22;4936388;28;20242;-57
2023/01/22 00:26:42;;;;;;;0.00;0.00;;;;;;;-1.40;100.00;99464.16;4924465;28;20242;-57
2023/01/22 00:29:09;;;;;;;0.00;0.00;;;;;;;-1.39;100.00;99463.28;4934950;28;20582;-57
2023/01/22 00:31:36;;;;;;;0.00;0.00;;;;;;;-1.39;100.00;99463.28;4929998;28;20237;-58
2023/01/22 00:34:03;;;;;;;0.00;0.00;;;;;;;-1.40;100.00;99460.75;4932044;28;20238;-56
2023/01/22 00:36:30;;;;;;;0.00;0.00;;;;;;;-1.38;100.00;99457.25;4935609;28;20253;-58
2023/01/22 00:38:57;;;;;;;0.00;0.00;;;;;;;-1.42;100.00;99444.59;4943369;28;20592;-55
2023/01/22 00:41:25;;;;;;;0.00;0.00;;;;;;;-1.39;100.00;99457.31;4927825;28;20747;-57
2023/01/22 00:43:52;;;;;;;0.00;0.00;;;;;;;-1.34;100.00;99450.28;4930951;28;20318;-58
2023/01/22 00:46:19;;;;;;;0.00;0.00;;;;;;;-1.30;100.00;99456.16;4934684;28;20246;-55
2023/01/22 00:48:48;;;;;;;0.00;0.00;;;;;;;-1.31;100.00;99451.94;4927002;28;20290;-55
2023/01/22 00:51:15;;;;;;;0.00;0.00;;;;;;;-1.23;100.00;99452.47;4937397;28;20328;-57
2023/01/22 00:53:42;;;;;;;0.00;0.00;;;;;;;-1.24;100.00;99455.94;4926619;28;20787;-56
2023/01/22 00:56:10;;;;;;;0.00;0.00;;;;;;;-1.30;100.00;99458.72;4934170;28;20325;-57
2023/01/22 00:58:38;;;;;;;0.00;0.00;;;;;;;-1.30;100.00;99448.47;4932962;28;20261;-56
2023/01/22 01:01:06;;;;;;;0.00;0.00;;;;;;;-1.24;100.00;99453.38;4950435;28;20694;-57
2023/01/22 01:03:35;;;;;;;0.00;0.00;;;;;;;-1.27;100.00;99454.31;4935871;28;20240;-57
2023/01/22 01:06:04;;;;;;;0.00;0.00;;;;;;;-1.35;100.00;99452.03;4939192;28;20249;-57
2023/01/22 01:08:33;;;;;;;0.00;0.00;;;;;;;-1.32;100.00;99438.25;4932668;28;20245;-58
2023/01/22 01:11:03;;;;;;;0.00;0.00;;;;;;;-1.30;100.00;99443.34;4929923;28;20240;-57
2023/01/22 01:13:32;;;;;;;0.00;0.00;;;;;;;-1.28;100.00;99446.69;4937027;28;20238;-57
2023/01/22 01:16:01;;;;;;;0.00;0.00;;;;;;;-1.32;100.00;99445.94;4922076;28;20294;-56
2023/01/22 01:18:28;;;;;;;0.00;0.00;;;;;;;-1.28;100.00;99439.00;4931512;28;20667;-57
2023/01/22 01:20:57;;;;;;;0.00;0.00;;;;;;;-1.24;100.00;99448.25;4933375;28;20270;-57
2023/01/22 01:23:24;;;;;;;0.00;0.00;;;;;;;-1.15;100.00;99440.22;4929890;28;20763;-55
2023/01/22 01:25:51;;;;;;;0.00;0.00;;;;;;;-1.25;100.00;99446.59;4945691;28;20234;-56
2023/01/22 01:28:18;;;;;;;0.00;0.00;;;;;;;-1.22;100.00;99449.03;4928968;28;20240;-56
2023/01/22 01:30:45;;;;;;;0.00;0.00;;;;;;;-1.27;100.00;99444.06;4934661;28;20236;-56
2023/01/22 01:33:13;;;;;;;0.00;0.00;;;;;;;-1.26;100.00;99448.28;4935132;28;20619;-57
2023/01/22 01:35:40;;;;;;;0.00;0.00;;;;;;;-1.32;100.00;99445.94;4932663;28;20309;-57
2023/01/22 01:38:06;;;;;;;0.00;0.00;;;;;;;-1.31;100.00;99446.81;4933036;28;20238;-58
2023/01/22 01:40:34;;;;;;;0.00;0.00;;;;;;;-1.31;100.00;99436.56;4942024;28;20237;-56
2023/01/22 01:43:01;;;;;;;0.00;0.00;;;;;;;-1.25;100.00;99436.34;4933969;28;20239;-54
2023/01/22 01:45:29;;;;;;;0.00;0.00;;;;;;;-1.30;100.00;99440.78;4938084;28;20243;-57
2023/01/22 01:48:06;;;;;;;0.00;0.00;;;;;;;-1.27;100.00;99438.94;4929021;28;20231;-54
2023/01/22 01:50:35;;;;;;;0.00;0.00;;;;;;;-1.21;100.00;99432.78;4930523;28;20710;-56
2023/01/22 01:53:02;;;;;;;0.00;0.00;;;;;;;-1.24;100.00;99436.25;4933932;28;20236;-58
2023/01/22 01:55:31;;;;;;;0.00;0.00;;;;;;;-1.15;100.00;99437.66;4932867;28;20241;-57
2023/01/22 01:58:02;;;;;;;0.00;0.00;;;;;;;-1.16;100.00;99438.56;4932480;28;20756;-58
2023/01/22 02:00:33;;;;;;;0.00;0.00;;;;;;;-1.22;100.00;99437.03;4933807;28;20231;-56
2023/01/22 02:03:00;;;;;;;0.00;0.00;;;;;;;-1.21;100.00;99438.72;4929289;28;20255;-57
2023/01/22 02:05:32;;;;;;;0.00;0.00;;;;;;;-1.19;100.00;99443.81;4928660;28;20257;-57
2023/01/22 02:08:00;;;;;;;0.00;0.00;;;;;;;-1.20;100.00;99435.25;4927836;28;20236;-58
2023/01/22 02:10:27;;;;;;;0.00;0.00;;;;;;;-1.16;100.00;99437.72;4930640;28;20302;-58
2023/01/22 02:13:00;;;;;;;0.00;0.00;;;;;;;-1.21;100.00;99438.72;4922613;28;20983;-58
2023/01/22 02:15:30;;;;;;;0.00;0.00;;;;;;;-1.12;100.00;99442.69;4933225;28;20309;-57
2023/01/22 02:17:56;;;;;;;0.00;0.00;;;;;;;-1.16;100.00;99435.16;4924175;28;20255;-57
2023/01/22 02:20:23;;;;;;;0.00;0.00;;;;;;;-1.14;100.00;99433.38;4928528;28;20300;-56
2023/01/22 02:22:51;;;;;;;0.00;0.00;;;;;;;-1.19;100.00;99428.44;4929675;28;20228;-58
2023/01/22 02:25:19;;;;;;;0.00;0.00;;;;;;;-1.15;100.00;99431.69;4933150;28;20246;-58
2023/01/22 02:27:45;;;;;;;0.00;0.00;;;;;;;-1.20;100.00;99431.88;4926052;28;20269;-57
2023/01/22 02:30:13;;;;;;;0.00;0.00;;;;;;;-1.14;100.00;99426.53;4930038;29;20234;-56
2023/01/22 02:32:39;;;;;;;0.00;0.00;;;;;;;-1.10;100.00;99422.13;4934390;28;20249;-57
2023/01/22 02:35:07;;;;;;;0.00;0.00;;;;;;;-1.14;100.00;99428.25;4931719;28;20230;-57
2023/01/22 02:37:33;;;;;;;0.00;0.00;;;;;;;-1.11;100.00;99423.84;4935082;28;20595;-57
2023/01/22 02:40:01;;;;;;;0.00;0.00;;;;;;;-1.12;100.00;99434.16;4921410;29;20716;-54
2023/01/22 02:42:28;;;;;;;0.00;0.00;;;;;;;-1.11;100.00;99426.41;4930439;28;20245;-57
2023/01/22 02:44:55;;;;;;;0.00;0.00;;;;;;;-1.14;100.00;99431.66;4926388;28;20241;-56
2023/01/22 02:47:22;;;;;;;0.00;0.00;;;;;;;-1.12;100.00;99436.72;4941442;28;20327;-58
2023/01/22 02:49:48;;;;;;;0.00;0.00;;;;;;;-1.18;100.00;99427.53;4929897;28;20235;-57
2023/01/22 02:52:16;;;;;;;0.00;0.00;;;;;;;-1.23;100.00;99429.44;4931633;28;20325;-55
2023/01/22 02:54:44;;;;;;;0.00;0.00;;;;;;;-1.22;100.00;99416.56;4929415;28;20239;-57
2023/01/22 02:57:13;;;;;;;0.00;0.00;;;;;;;-1.21;100.00;99413.09;4932186;28;20231;-57
2023/01/22 02:59:40;;;;;;;0.00;0.00;;;;;;;-1.27;100.00;99412.50;4942949;28;20565;-58
2023/01/22 03:02:09;;;;;;;0.00;0.00;;;;;;;-1.16;100.00;99405.25;4935264;28;20320;-55
2023/01/22 03:04:37;;;;;;;0.00;0.00;;;;;;;-1.21;100.00;99404.59;4933717;28;20226;-58
2023/01/22 03:07:04;;;;;;;0.00;0.00;;;;;;;-1.13;100.00;99410.25;4920362;29;20322;-57
2023/01/22 03:09:31;;;;;;;0.00;0.00;;;;;;;-1.11;100.00;99416.16;4929792;28;20281;-56
2023/01/22 03:11:58;;;;;;;0.00;0.00;;;;;;;-1.13;100.00;99417.94;4927373;28;20238;-57
2023/01/22 03:22:48;;;;;;;0.00;0.00;;;;;;;-1.21;100.00;99413.09;4925881;28;20764;-57
2023/01/22 03:25:14;;;;;;;0.00;0.00;;;;;;;-1.21;100.00;99407.97;4930940;28;20281;-57
2023/01/22 03:28:07;;;;;;;0.00;0.00;;;;;;;-1.26;100.00;99406.50;4934555;28;20242;-57
2023/01/22 03:30:31;;;;;;;0.00;0.00;;;;;;;-1.21;100.00;99410.53;4937820;28;20611;-58
2023/01/22 03:32:58;;;;;;;0.00;0.00;;;;;;;-1.24;100.00;99397.84;4928456;28;20305;-57
2023/01/22 03:35:25;;;;;;;0.00;0.00;;;;;;;-1.25;100.00;99397.91;4931286;28;20296;-57
2023/01/22 03:38:03;;;;;;;0.00;0.00;;;;;;;-1.30;100.00;99389.56;4928215;28;20234;-57
2023/01/22 03:40:30;;;;;;;0.00;0.00;;;;;;;-1.23;100.00;99396.13;4935913;28;20598;-55
2023/01/22 03:42:57;;;;;;;0.00;0.00;;;;;;;-1.27;100.00;99403.06;4930398;28;20244;-58
2023/01/22 03:45:26;;;;;;;0.00;0.00;;;;;;;-1.26;100.00;99402.19;4928661;28;20250;-56
2023/01/22 03:47:55;;;;;;;0.00;0.00;;;;;;;-1.25;100.00;99401.28;4932341;28;20575;-58
2023/01/22 03:50:29;;;;;;;0.00;0.00;;;;;;;-1.21;100.00;99402.84;4945637;28;20332;-57
2023/01/22 03:52:56;;;;;;;0.00;0.00;;;;;;;-1.23;100.00;99396.13;4937385;28;20277;-56
2023/01/22 03:55:24;;;;;;;0.00;0.00;;;;;;;-1.19;100.00;99400.25;4922129;29;20235;-55
2023/01/22 03:57:52;;;;;;;0.00;0.00;;;;;;;-1.19;100.00;99395.94;4929658;28;20310;-57
2023/01/22 04:00:20;;;;;;;0.00;0.00;;;;;;;-1.14;100.00;99405.19;4947684;28;20253;-57
2023/01/22 04:02:51;;;;;;;0.00;0.00;;;;;;;-1.19;100.00;99406.19;4938147;28;20230;-58
2023/01/22 04:05:23;;;;;;;0.00;0.00;;;;;;;-1.18;100.00;99404.47;4935503;28;20229;-57
2023/01/22 04:07:50;;;;;;;0.00;0.00;;;;;;;-1.14;100.00;99412.88;4927567;28;20265;-58
2023/01/22 04:10:20;;;;;;;0.00;0.00;;;;;;;-1.10;100.00;99412.72;4938215;28;20237;-58
2023/01/22 04:12:47;;;;;;;0.00;0.00;;;;;;;-1.20;100.00;99417.31;4933147;28;20237;-57
2023/01/22 04:15:17;;;;;;;0.00;0.00;;;;;;;-1.15;100.00;99416.31;4918451;29;20312;-58
2023/01/22 04:17:45;;;;;;;0.00;0.00;;;;;;;-1.16;100.00;99414.66;4934588;28;20232;-58
2023/01/22 04:20:25;;;;;;;0.00;0.00;;;;;;;-1.14;100.00;99407.75;4939564;28;20236;-57
2023/01/22 04:23:04;;;;;;;0.00;0.00;;;;;;;-1.14;100.00;99406.03;4947544;28;20319;-57
2023/01/22 04:25:30;;;;;;;0.00;0.00;;;;;;;-1.14;100.00;99405.19;4938129;28;20234;-58
2023/01/22 04:27:57;;;;;;;0.00;0.00;;;;;;;-1.11;100.00;99408.47;4935345;28;20332;-59
2023/01/22 04:30:54;;;;;;;0.00;0.00;;;;;;;-1.09;100.00;99411.81;5054517;23;20230;31
2023/01/22 04:33:40;;;;;;;0.00;0.00;;;;;;;-0.97;100.00;99412.22;4876370;29;20236;-57
2023/01/22 04:36:20;;;;;;;0.00;0.00;;;;;;;-1.02;100.00;99419.25;4907372;29;20240;-57
2023/01/22 04:38:46;;;;;;;0.00;0.00;;;;;;;-1.09;100.00;99416.09;4890335;29;20479;-58
2023/01/22 04:41:13;;;;;;;0.00;0.00;;;;;;;-1.09;100.00;99416.94;4897109;29;20250;-58
2023/01/22 04:43:39;;;;;;;0.00;0.00;;;;;;;-1.10;100.00;99420.41;4888272;29;20242;-57
2023/01/22 04:46:06;;;;;;;0.00;0.00;;;;;;;-1.04;100.00;99414.19;4880402;29;20227;-58
2023/01/22 04:48:33;;;;;;;0.00;0.00;;;;;;;-1.06;100.00;99421.94;4888184;29;20239;-59
2023/01/22 04:51:00;;;;;;;0.00;0.00;;;;;;;-1.02;100.00;99421.81;4890579;29;20235;-58
2023/01/22 04:53:31;;;;;;;0.00;0.00;;;;;;;-1.02;100.00;99422.66;4883216;29;20256;-58
2023/01/22 04:55:57;;;;;;;0.00;0.00;;;;;;;-1.02;100.00;99409.00;4887927;29;20237;-57
2023/01/22 04:58:25;;;;;;;0.00;0.00;;;;;;;-0.99;100.00;99416.56;4890743;29;20310;-57
2023/01/22 05:00:55;;;;;;;0.00;0.00;;;;;;;-0.94;100.00;99412.97;4877209;29;20652;-57
2023/01/22 05:03:22;;;;;;;0.00;0.00;;;;;;;-0.90;100.00;99417.06;4905863;29;20293;-58
2023/01/22 05:05:49;;;;;;;0.00;0.00;;;;;;;-0.97;100.00;99419.91;4888148;29;20319;-57
2023/01/22 05:08:16;;;;;;;0.00;0.00;;;;;;;-0.94;100.00;99425.78;4890752;29;20245;-58
2023/01/22 05:10:45;;;;;;;0.00;0.00;;;;;;;-0.94;100.00;99419.81;4887522;29;20232;-55
2023/01/22 05:13:18;;;;;;;0.00;0.00;;;;;;;-0.96;100.00;99425.00;4890903;29;20307;-57
2023/01/22 05:15:44;;;;;;;0.00;0.00;;;;;;;-0.96;100.00;99427.56;4889363;29;20283;-58
2023/01/22 05:18:13;;;;;;;0.00;0.00;;;;;;;-0.95;100.00;99420.69;4889418;29;20319;-55
2023/01/22 05:20:46;;;;;;;0.00;0.00;;;;;;;-0.94;100.00;99419.81;4887914;29;20337;-57
2023/01/22 05:23:14;;;;;;;0.00;0.00;;;;;;;-0.94;100.00;99420.66;4890482;29;20311;-57
2023/01/22 05:25:48;;;;;;;0.00;0.00;;;;;;;-0.95;100.00;99423.25;4889397;29;20589;-58
2023/01/22 05:28:17;;;;;;;0.00;0.00;;;;;;;-0.97;100.00;99420.75;4884636;29;20326;-57
2023/01/22 05:31:07;;;;;;;0.00;0.00;;;;;;;-0.94;100.00;99417.25;4887817;29;20723;-58
2023/01/22 05:33:38;;;;;;;0.00;0.00;;;;;;;-0.92;100.00;99420.56;4887790;29;20312;-58
2023/01/22 05:36:07;;;;;;;0.00;0.00;;;;;;;-0.89;100.00;99420.47;4890720;29;20364;-58
2023/01/22 05:38:34;;;;;;;0.00;0.00;;;;;;;-0.96;100.00;99419.03;4888646;29;20228;-57
2023/01/22 05:41:02;;;;;;;0.00;0.00;;;;;;;-0.93;100.00;99421.47;4891101;29;20245;-58
2023/01/22 05:43:36;;;;;;;0.00;0.00;;;;;;;-0.91;100.00;99425.66;4880889;29;20716;-56
2023/01/22 05:46:05;;;;;;;0.00;0.00;;;;;;;-0.85;100.00;99428.88;4880271;29;20649;-58
2023/01/22 05:48:54;;;;;;;0.00;0.00;;;;;;;-0.80;100.00;99432.09;4887564;29;20253;-58
2023/01/22 05:51:25;;;;;;;0.00;0.00;;;;;;;-0.78;100.00;99438.00;4889351;29;20709;-58
2023/01/22 05:53:52;;;;;;;0.00;0.00;;;;;;;-0.79;100.00;99442.28;4877675;29;20604;-58
2023/01/22 05:56:20;;;;;;;0.00;0.00;;;;;;;-0.79;100.00;99429.47;4890149;29;20245;-58
2023/01/22 05:58:47;;;;;;;0.00;0.00;;;;;;;-0.77;100.00;99437.94;4888118;29;20601;-57
2023/01/22 06:01:14;;;;;;;0.00;0.00;;;;;;;-0.80;100.00;99437.25;4890367;29;20240;-58
2023/01/22 06:03:45;;;;;;;0.00;0.00;;;;;;;-0.83;100.00;99435.59;4886297;29;20228;-59
2023/01/22 06:06:15;;;;;;;0.00;0.00;;;;;;;-0.81;100.00;99436.38;4895748;29;20590;-56
2023/01/22 06:08:43;;;;;;;0.00;0.00;;;;;;;-0.78;100.00;99443.13;4901471;29;20236;-55
2023/01/22 06:11:12;;;;;;;0.00;0.00;;;;;;;-0.79;100.00;99437.16;4888515;29;20338;-59
2023/01/22 06:13:45;;;;;;;0.00;0.00;;;;;;;-0.82;100.00;99446.72;4877682;29;20592;-59
2023/01/22 06:16:17;;;;;;;0.00;0.00;;;;;;;-0.82;100.00;99447.53;4882749;29;20312;-58
2023/01/22 06:19:06;;;;;;;0.00;0.00;;;;;;;-0.77;100.00;99447.38;4887402;29;20240;-58
2023/01/22 06:21:42;;;;;;;0.00;0.00;;;;;;;-0.78;100.00;99450.84;4883416;29;20315;-58
2023/01/22 06:24:10;;;;;;;0.00;0.00;;;;;;;-0.77;100.00;99453.31;4891657;29;20246;-57
2023/01/22 06:26:36;;;;;;;0.00;0.00;;;;;;;-0.76;100.00;99457.56;4884674;29;20697;-58
2023/01/22 06:29:06;;;;;;;0.00;0.00;;;;;;;-0.76;100.00;99447.31;4879868;29;20245;-58
2023/01/22 06:31:34;;;;;;;0.00;0.00;;;;;;;-0.73;100.00;99458.34;4885663;29;20312;-58
2023/01/22 06:34:04;;;;;;;0.00;0.00;;;;;;;-0.78;100.00;99450.84;4889070;29;20236;-58
2023/01/22 06:36:31;;;;;;;0.00;0.00;;;;;;;-0.76;100.00;99459.31;4884604;29;20363;-57
2023/01/22 06:38:58;;;;;;;0.00;0.00;;;;;;;-0.79;100.00;99460.22;4885861;29;20269;-59
2023/01/22 06:41:36;;;;;;;0.00;0.00;;;;;;;-0.77;100.00;99452.50;4887092;29;20319;-59
2023/01/22 06:44:07;;;;;;;0.00;0.00;;;;;;;-0.72;100.00;99465.13;4880980;29;20228;-59
2023/01/22 06:46:33;;;;;;;0.00;0.00;;;;;;;-0.75;100.00;99464.34;4886792;29;20220;-57
2023/01/22 06:49:04;;;;;;;0.00;0.00;;;;;;;-0.79;100.00;99464.53;4888248;29;20331;-57
2023/01/22 06:51:31;;;;;;;0.00;0.00;;;;;;;-0.74;100.00;99462.63;4884128;29;20249;-58
2023/01/22 06:53:59;;;;;;;0.00;0.00;;;;;;;-0.75;100.00;99466.09;4885169;29;20653;-59
2023/01/22 06:56:26;;;;;;;0.00;0.00;;;;;;;-0.78;100.00;99468.78;4889430;29;20235;-57
2023/01/22 06:58:53;;;;;;;0.00;0.00;;;;;;;-0.83;100.00;99471.50;4879088;29;20254;-57
2023/01/22 07:01:21;;;;;;;0.00;0.00;;;;;;;-0.83;100.00;99474.06;4889799;29;20240;-58
2023/01/22 07:03:48;;;;;;;0.00;0.00;;;;;;;-0.79;100.00;99479.94;4887073;29;20291;-58
2023/01/22 07:06:17;;;;;;;0.00;0.00;;;;;;;-0.81;100.00;99477.41;4890552;29;20232;-58
2023/01/22 07:08:44;;;;;;;0.00;0.00;;;;;;;-0.81;100.00;99482.53;4887373;29;20343;-59
2023/01/22 07:11:12;;;;;;;0.00;0.00;;;;;;;-0.79;100.00;99485.88;4890438;29;20256;-59
2023/01/22 07:13:38;;;;;;;0.00;0.00;;;;;;;-0.80;100.00;99488.50;4887391;29;20394;-59
2023/01/22 07:16:06;;;;;;;0.00;0.00;;;;;;;-0.79;100.00;99488.44;4890492;29;20244;-58
2023/01/22 07:18:34;;;;;;;0.00;0.00;;;;;;;-0.79;100.00;99485.88;4889483;29;20363;-58
2023/01/22 07:21:01;;;;;;;0.00;0.00;;;;;;;-0.76;100.00;99482.38;4887752;29;20296;-59
2023/01/22 07:23:28;;;;;;;0.00;0.00;;;;;;;-0.79;100.00;99493.56;4889800;29;20236;-58
2023/01/22 07:25:55;;;;;;;0.00;0.00;;;;;;;-0.73;100.00;99487.38;4887048;29;20240;-58
2023/01/22 07:28:21;;;;;;;0.00;0.00;;;;;;;-0.78;100.00;99495.22;4889633;29;20242;-57
2023/01/22 07:30:48;;;;;;;0.00;0.00;;;;;;;-0.71;100.00;99497.56;4886551;29;20232;-58
2023/01/22 07:33:15;;;;;;;0.00;0.00;;;;;;;-0.70;100.00;99492.41;4890291;29;20275;-58
2023/01/22 07:35:44;;;;;;;0.00;0.00;;;;;;;-0.67;100.00;99499.97;4886799;29;20240;-58
2023/01/22 07:38:10;;;;;;;0.00;0.00;;;;;;;-0.71;100.00;99503.56;4889738;29;20230;-57
2023/01/22 07:40:37;;;;;;;0.00;0.00;;;;;;;-0.67;100.00;99505.09;4885876;29;20236;-58
2023/01/22 07:43:05;;;;;;;0.00;0.00;;;;;;;-0.68;100.00;99502.59;4890023;29;20291;-55
2023/01/22 07:45:33;;;;;;;0.00;0.00;;;;;;;-0.67;100.00;99505.09;4878484;29;20232;-58
2023/01/22 07:48:01;;;;;;;0.00;0.00;;;;;;;-0.62;100.00;99508.34;4886805;29;20768;-58
2023/01/22 07:50:29;;;;;;;0.00;0.00;;;;;;;-0.56;100.00;99502.13;4889795;29;20307;-58
2023/01/22 07:52:59;;;;;;;0.00;0.00;;;;;;;-0.49;100.00;99513.81;4886642;29;20233;-59
2023/01/22 07:55:26;;;;;;;0.00;0.00;;;;;;;-0.45;100.00;99507.69;4889884;29;20565;-59
2023/01/22 07:57:57;;;;;;;0.00;0.00;;;;;;;-0.36;100.00;99513.34;4887014;29;20239;-58
2023/01/22 08:00:24;;;;;;;0.00;0.00;;;;;;;-0.28;100.00;99513.88;4889451;29;20287;-58
2023/01/22 08:02:50;;;;;;;0.00;0.00;;;;;;;-0.14;100.00;99510.78;4886117;29;20291;-57
2023/01/22 08:05:17;;;;;;;0.00;0.00;;;;;;;-0.03;100.00;99515.50;4889185;29;20236;-57
2023/01/22 08:07:43;;;;;;;0.00;0.00;;;;;;;-0.01;100.00;99517.09;4886937;29;20254;-55
2023/01/22 08:10:13;;;;;;;0.00;0.00;;;;;;;0.24;100.00;99510.97;4889638;29;20244;-57
2023/01/22 08:12:41;;;;;;;0.00;0.00;;;;;;;0.48;100.00;99517.69;4886189;29;20237;-57
2023/01/22 08:15:08;;;;;;;0.00;0.00;;;;;;;0.67;100.00;99523.72;4888734;29;20236;-57
2023/01/22 08:17:35;;;;;;;0.00;0.00;;;;;;;0.71;98.88;99522.69;4887328;29;20235;-57
2023/01/22 08:20:01;;;;;;;0.00;0.00;;;;;;;1.01;98.59;99522.28;4889036;29;20299;-58
2023/01/22 08:22:28;;;;;;;0.00;0.00;;;;;;;1.22;96.32;99527.34;4889310;29;20251;-59
2023/01/22 08:24:55;;;;;;;0.00;0.00;;;;;;;1.26;95.64;99530.63;4885885;29;20236;-59
2023/01/22 08:27:23;;;;;;;0.00;0.00;;;;;;;1.20;94.18;99533.47;4889658;29;20231;-57
2023/01/22 08:29:49;;;;;;;0.00;0.00;;;;;;;1.14;96.26;99540.56;4886993;29;20228;-58
2023/01/22 08:32:16;;;;;;;0.00;0.00;;;;;;;1.20;95.96;99544.56;4888629;29;20251;-58
2023/01/22 08:34:42;;;;;;;0.00;0.00;;;;;;;1.15;96.57;99549.09;4886771;29;20629;-58
2023/01/22 08:37:09;;;;;;;0.00;0.00;;;;;;;1.12;97.48;99550.06;4892698;29;20642;-57
2023/01/22 08:39:36;;;;;;;0.00;0.00;;;;;;;1.07;97.05;99548.59;4889497;29;21146;-57
2023/01/22 08:42:03;;;;;;;0.00;0.00;;;;;;;1.01;97.26;99547.97;4892552;29;20224;-56
2023/01/22 08:44:30;;;;;;;0.00;0.00;;;;;;;0.95;97.27;99549.97;4892535;29;20288;-58
2023/01/22 08:46:57;;;;;;;0.00;0.00;;;;;;;0.91;97.37;99543.28;4888384;29;20248;-57
2023/01/22 08:49:25;;;;;;;0.00;0.00;;;;;;;0.94;98.33;99546.59;4892675;29;20328;-58
2023/01/22 08:51:51;;;;;;;0.00;0.00;;;;;;;0.86;98.02;99549.47;4887187;29;20371;-57
2023/01/22 08:54:18;;;;;;;0.00;0.00;;;;;;;0.90;98.07;99547.63;4891086;29;20240;-56
2023/01/22 08:56:46;;;;;;;0.00;0.00;;;;;;;0.53;100.00;99551.75;4889011;29;20228;-58
2023/01/22 08:59:13;;;;;;;0.00;0.00;;;;;;;0.75;100.00;99555.97;4892211;29;20224;-56
2023/01/22 09:01:41;;;;;;;0.00;0.00;;;;;;;0.66;98.40;99555.47;4889220;29;20336;-58
2023/01/22 09:04:10;;;;;;;0.00;0.00;;;;;;;0.73;99.88;99556.88;4892430;29;20237;-58
2023/01/22 09:06:38;;;;;;;0.00;0.00;;;;;;;0.60;99.48;99553.16;4889513;29;20235;-58
2023/01/22 09:09:05;;;;;;;0.00;0.00;;;;;;;0.56;100.00;99551.63;4891330;29;20702;-56
2023/01/22 09:11:32;;;;;;;0.00;0.00;;;;;;;0.58;100.00;99555.78;4889235;29;20315;-57
2023/01/22 09:13:59;;;;;;;0.00;0.00;;;;;;;0.62;100.00;99553.06;4889148;29;20351;-58
2023/01/22 09:16:27;;;;;;;0.00;0.00;;;;;;;0.63;100.00;99560.75;4892261;29;20236;-57
2023/01/22 09:18:55;;;;;;;0.00;0.00;;;;;;;0.71;100.00;99561.25;4889229;29;20248;-56
2023/01/22 09:21:22;;;;;;;0.00;0.00;;;;;;;0.87;100.00;99566.56;4892230;29;20615;-56
2023/01/22 09:23:48;;;;;;;0.00;0.00;;;;;;;1.00;99.31;99566.03;4889108;29;20618;-56
2023/01/22 09:26:15;;;;;;;0.00;0.00;;;;;;;1.11;99.10;99568.97;4892170;29;20220;-57
2023/01/22 09:28:41;;;;;;;0.00;0.00;;;;;;;1.39;98.79;99577.19;4889300;29;20225;-57
2023/01/22 09:31:11;;;;;;;0.10;0.10;;;;;;;1.56;97.22;99577.28;4891353;29;20272;-57
2023/01/22 09:33:37;;;;;;;0.00;0.00;;;;;;;1.75;95.36;99572.09;4888937;29;20232;-57
2023/01/22 09:36:11;;;;;;;0.00;0.00;;;;;;;1.96;95.44;99581.50;4891965;29;20240;-57
2023/01/22 09:38:38;;;;;;;0.00;0.00;;;;;;;1.95;91.99;99583.22;4888715;29;20252;-58
2023/01/22 09:41:13;;;;;;;0.00;0.00;;;;;;;2.01;90.94;99582.13;4890367;29;20268;-57
2023/01/22 09:43:47;;;;;;;0.00;0.00;;;;;;;2.26;90.36;99583.50;4888220;29;20231;-55
2023/01/22 09:46:19;;;;;;;0.00;0.00;;;;;;;2.44;89.37;99582.59;4891571;29;20238;-56
2023/01/22 09:48:51;;;;;;;0.00;0.00;;;;;;;2.44;89.38;99586.94;4888102;29;20240;-56
2023/01/22 09:51:21;;;;;;;0.00;0.00;;;;;;;2.66;88.33;99584.94;4891032;29;20241;-56
2023/01/22 09:53:54;;;;;;;0.00;0.00;;;;;;;2.69;88.96;99589.13;4887970;29;20866;-57
2023/01/22 09:56:26;;;;;;;0.00;0.00;;;;;;;2.73;87.78;99589.78;4891649;29;20244;-57
2023/01/22 09:58:54;;;;;;;0.00;0.00;;;;;;;2.71;85.71;99587.31;4888694;29;20228;-57
2023/01/22 10:01:23;;;;;;;0.00;0.00;;;;;;;2.77;83.98;99594.72;4891647;29;20272;-56
2023/01/22 10:03:53;;;;;;;0.00;0.00;;;;;;;2.52;84.72;99592.56;4888525;29;20304;-58
2023/01/22 10:06:24;;;;;;;0.00;0.00;;;;;;;2.47;84.80;99591.94;4891280;29;20666;-58
2023/01/22 10:08:57;;;;;;;0.00;0.00;;;;;;;1.90;86.50;99588.59;4888525;29;20242;-56
2023/01/22 10:11:24;;;;;;;0.00;0.00;;;;;;;1.97;85.10;99583.16;4890696;29;20645;-56
2023/01/22 10:13:55;;;;;;;9.33;6.00;;;;;;;2.13;85.84;99585.84;4887148;29;20637;-57
2023/01/22 10:16:21;;;;;;;9.23;6.03;;;;;;;2.08;85.25;99591.22;4891242;29;20247;-58
2023/01/22 10:18:52;;;;;;;9.90;6.23;;;;;;;2.01;86.33;99585.50;4888437;29;20233;-57
2023/01/22 10:21:21;;;;;;;7.40;5.60;;;;;;;1.99;84.43;99589.91;4891239;29;20224;-60
2023/01/22 10:23:49;;;;;;;7.73;6.00;;;;;;;1.99;84.66;99587.31;4887933;29;20268;-58
2023/01/22 10:26:23;;;;;;;10.33;6.30;;;;;;;2.13;85.62;99594.38;4890595;29;20228;-57
2023/01/22 10:28:56;;;;;;;8.00;5.77;;;;;;;2.13;83.92;99586.66;4887851;29;20240;-57
2023/01/22 10:31:26;;;;;;;8.80;5.70;;;;;;;1.72;86.69;99579.16;4890148;29;20237;-57
2023/01/22 10:33:57;;;;;;;7.83;5.50;;;;;;;2.04;85.46;99582.78;4887707;29;20244;-58
2023/01/22 10:36:24;;;;;;;7.50;5.20;;;;;;;1.73;85.54;99575.66;4890974;29;20237;-56
2023/01/22 10:39:03;;;;;;;7.60;5.67;;;;;;;1.75;86.50;99579.81;4888004;29;20945;-55
2023/01/22 10:41:31;;;;;;;8.07;5.67;;;;;;;1.70;86.69;99578.38;4890750;29;20240;-55
2023/01/22 10:44:08;;;;;;;10.70;6.80;;;;;;;1.59;89.19;99586.63;4887590;29;20319;-56
2023/01/22 10:46:34;;;;;;;7.00;5.10;;;;;;;1.81;88.24;99578.72;4888544;29;20677;-56
2023/01/22 10:49:03;;;;;;;10.53;7.20;;;;;;;1.76;86.99;99575.53;4890283;29;20256;-54
2023/01/22 10:51:32;;;;;;;6.93;5.20;;;;;;;1.91;85.36;99581.69;4889457;29;20236;-54
2023/01/22 10:54:00;;;;;;;7.27;5.20;;;;;;;1.76;84.52;99573.78;4886283;29;20637;-57
2023/01/22 10:56:31;;;;;;;7.97;4.90;;;;;;;2.00;84.92;99581.25;4890244;29;20248;-57
2023/01/22 10:58:58;;;;;;;6.53;4.90;;;;;;;2.11;83.73;99583.34;4887405;29;20303;-57
2023/01/22 11:01:29;;;;;;;8.27;6.10;;;;;;;2.11;84.64;99580.78;4889676;29;20236;-57
2023/01/22 11:03:56;;;;;;;7.60;5.70;;;;;;;2.27;83.33;99582.59;4887552;29;20239;-56
2023/01/22 11:06:26;;;;;;;9.47;7.20;;;;;;;1.76;86.19;99581.50;4889643;29;20284;-57
2023/01/22 11:08:58;;;;;;;8.03;6.43;;;;;;;2.11;85.48;99582.50;4887500;29;20232;-58
2023/01/22 11:11:30;;;;;;;19.83;12.73;;;;;;;1.95;86.15;99582.41;4889342;29;20709;-56
2023/01/22 11:14:02;;;;;;;7.17;4.87;;;;;;;1.88;86.95;99581.84;4887278;29;21257;-57
2023/01/22 11:16:34;;;;;;;7.43;5.00;;;;;;;1.96;85.51;99578.91;4890413;29;20634;-57
2023/01/22 11:19:05;;;;;;;11.00;7.90;;;;;;;1.83;85.64;99583.78;4887802;29;20229;-57
2023/01/22 11:21:35;;;;;;;8.03;6.03;;;;;;;2.15;86.50;99589.16;4889105;29;20244;-59
2023/01/22 11:24:08;;;;;;;17.37;13.53;;;;;;;2.17;85.63;99582.19;4887220;29;20236;-57
2023/01/22 11:26:49;;;;;;;7.17;4.50;;;;;;;2.05;84.10;99587.03;4888736;29;20236;-58
2023/01/22 11:29:29;;;;;;;6.47;4.43;;;;;;;1.94;86.35;99584.13;4889864;29;20697;-58
2023/01/22 11:32:12;;;;;;;16.53;11.73;;;;;;;1.70;85.79;99579.19;4886957;29;20252;-57
2023/01/22 11:34:51;;;;;;;5.47;4.17;;;;;;;2.00;86.34;99578.69;4886492;29;20756;-57
2023/01/22 11:37:21;;;;;;;6.30;4.73;;;;;;;2.09;86.91;99576.59;4890108;29;20228;-57
2023/01/22 11:40:00;;;;;;;6.13;4.10;;;;;;;1.72;87.48;99586.88;4886919;29;20232;-57
2023/01/22 11:42:42;;;;;;;48.97;25.10;;;;;;;1.58;87.01;99572.06;4889057;29;20631;-57
2023/01/22 11:45:23;;;;;;;7.30;4.90;;;;;;;1.79;87.44;99580.53;4887115;29;20316;-58
2023/01/22 11:48:14;;;;;;;10.53;7.17;;;;;;;1.89;87.43;99580.94;4886469;29;20228;-58